National Weather Service United States Department of Commerce

Turning Stormy in the Northwest

An active fall storm pattern developing in the Pacific Northwest this week will bring areas of heavy rain and high elevation snow. Northern California will benefit from rainfall this week that will aid firefighters given the recent large wildfires. Read More >

                                      ZTL Airspace Summary / KCHA TAF                    For ATC Planning Purposes Only
ZTL Airspace Summary:
High pressure will continue to dominate the airspace. Expect VFR conditions under mostly clear skies. However, valley fog and low clouds may develop in the southern Appalachians near daybreak. Surface winds will be northeast to east at 3-8kts, and frequently calm overnight. Flight Hazards: None expected.

Updated: 10/18/2017 7:38 PM
 

Chattanooga Terminal Aerodrome Forecast:
 
FTUS80 KCHA 182321 RRB
KCHA 182320Z 1900/1924 00000KT P6SM FEW250
     FM191400 05005KT P6SM SKC

 

CHA METAR:  
SAUS80 KCHA 190500
METAR KCHA 190453Z AUTO 00000KT 10SM CLR 10/08 A3028 RMK AO2 SLP253
     T01000083 402220061 $

Go to KCHA TAF TDA
Go to KCHA TAF TDA

CHA TRACON HAZARDS
CHA TRACON: SFC-10000
AVG CIG BASE WHERE REPORTED BLW 10000FT: 300
LOWEST REPORTED CIG: 300
LOWEST REPORTED FLIGHT CAT: LIFR
METARS:
K9A5 190455Z AUTO 00000KT 7SM CLR 06/05 A3030 RMK AO2 T00620049
KRZR 190455Z AUTO 00000KT 9SM CLR 08/08 A3026 RMK A01
KDNN 190455Z AUTO 00000KT 10SM CLR 08/08 A3030 RMK AO2
K2A0 190455Z AUTO 00000KT 6SM BR BKN003 08/08 A3027 RMK A01
KCHA 190453Z AUTO 00000KT 10SM CLR 10/08 A3028 RMK AO2 SLP253 T01000083 402220061 $

CHA TRACON HAZARD

Forecast Surface Map Loop / Collaborative Convective Forecast Product / Vertical Wind Profile
Weather Map

 

AIRMETs & SIGMETS/ Southeast Radar loop / Satellite Image (click on image to enlarge)
Weather Map Southeast Radar Loop

satellite